Wortham, Mississippi
Current Conditions -  °F | °C
As of 7:53 PM on Wednesday 26 Nov 2014 (Local Time) from KGPT Reporting Station
Clear Clear  
Wind Chill: 58°   Ceiling: Unl
Heat Index: 58°   Visibility: 10mi
Dew Point: 44°   Wind: 7mph
Humidity: 60%   Direction: NA
Pressure: 30.2"   Gusts: NA
Location:  30.603°N, 89.0932°W
Report Text: KGPT 270153Z VRB06KT 10SM CLR 14/07 A3020 RMK AO2 SLP224 T01440067
Loading
Personal Weather Stations






























Interactive Weather Map New forecast layout! Learn more

10-Day Weather Forecast

Advertisements
Track Severe Weather on mobile